createdAt,value
2022-12-05T07:31:01.222Z,15.73
2022-12-05T07:33:33.064Z,14.07
2022-12-05T07:36:07.594Z,14.73
2022-12-05T07:38:40.238Z,14.88
2022-12-05T07:41:17.743Z,14.98
2022-12-05T08:32:09.340Z,13.05
2022-12-05T08:34:41.213Z,11.60
2022-12-05T08:37:13.024Z,11.52
2022-12-05T08:39:44.761Z,10.88
2022-12-05T08:42:16.544Z,12.70
2022-12-05T08:44:50.984Z,11.32
2022-12-05T08:47:24.114Z,11.32
2022-12-05T08:49:56.263Z,11.85
2022-12-05T08:52:28.173Z,11.27
2022-12-05T08:55:00.367Z,21.40
2022-12-05T08:57:32.583Z,16.30
2022-12-05T09:00:06.725Z,24.02
2022-12-05T09:02:39.866Z,19.60
2022-12-05T09:05:27.110Z,17.58
2022-12-05T09:07:59.802Z,13.88
2022-12-05T09:10:31.689Z,12.43
2022-12-05T09:13:03.430Z,13.38
2022-12-05T09:15:38.634Z,13.27
2022-12-05T09:18:12.605Z,13.70
2022-12-05T09:20:44.373Z,12.77
2022-12-05T17:41:52.559Z,12.55
2022-12-05T17:44:24.636Z,11.05
2022-12-05T17:46:56.562Z,11.70
2022-12-05T17:49:28.590Z,11.95
2022-12-05T17:54:56.425Z,11.30
2022-12-05T17:57:30.179Z,11.93
2022-12-05T18:00:02.502Z,10.82
2022-12-05T18:02:34.704Z,11.18
2022-12-05T18:05:06.988Z,11.13
2022-12-05T18:07:43.192Z,10.90
2022-12-05T18:10:17.235Z,10.10
2022-12-05T18:12:51.355Z,10.48
2022-12-05T18:15:23.185Z,10.00
2022-12-05T18:17:55.655Z,10.10
2022-12-05T18:20:27.662Z,10.77
2022-12-05T18:22:59.528Z,10.80
2022-12-05T18:25:32.095Z,10.80
2022-12-05T18:28:05.376Z,12.05
2022-12-05T19:09:15.472Z,11.07
2022-12-05T19:11:48.754Z,11.10
2022-12-05T19:14:21.925Z,11.05
2022-12-05T19:17:00.151Z,11.40
2022-12-05T19:19:37.235Z,11.93
2022-12-05T19:22:11.943Z,11.50
2022-12-05T19:24:43.698Z,12.00
2022-12-05T19:27:15.536Z,12.05
2022-12-05T19:29:48.657Z,12.50
2022-12-05T19:32:20.507Z,11.80
2022-12-05T19:47:44.143Z,7.30
2022-12-05T19:50:16.023Z,7.72
2022-12-05T19:52:50.560Z,8.02
2022-12-05T19:55:22.430Z,8.13
2022-12-05T19:57:54.150Z,8.45
2022-12-05T20:00:27.421Z,8.27
2022-12-05T20:02:59.266Z,8.27
2022-12-05T20:05:31.793Z,8.55
2022-12-05T20:08:03.872Z,9.67
2022-12-05T20:10:37.711Z,9.50
2022-12-05T20:13:44.797Z,8.48
2022-12-05T20:16:03.872Z,8.27
2022-12-05T20:18:37.556Z,7.63
2022-12-05T20:21:14.169Z,8.43
2022-12-05T20:23:46.454Z,8.10
2022-12-05T20:26:20.461Z,7.15
2022-12-05T20:28:52.562Z,6.55
2022-12-05T20:31:28.122Z,5.65
2022-12-05T20:34:00.141Z,5.72
2022-12-05T20:36:34.925Z,5.72
2022-12-05T20:39:08.273Z,6.03
2022-12-05T20:44:14.692Z,5.60
2022-12-05T20:46:48.996Z,5.40
2022-12-05T20:49:23.588Z,4.97
2022-12-05T20:51:55.412Z,4.53
2022-12-05T20:54:27.669Z,4.55
2022-12-05T20:56:59.443Z,5.07
2022-12-05T20:59:31.209Z,4.90
2022-12-05T21:02:04.495Z,5.35
2022-12-05T21:04:40.401Z,4.78
2022-12-05T21:07:12.171Z,5.15
2022-12-05T21:09:43.991Z,4.50
2022-12-05T21:12:15.734Z,4.72
2022-12-05T21:14:47.500Z,4.82
2022-12-05T21:17:20.958Z,4.50
2022-12-05T21:19:52.731Z,5.78
2022-12-05T21:22:24.644Z,8.07
2022-12-05T21:24:56.784Z,9.45
2022-12-05T21:27:28.533Z,8.25
2022-12-05T21:30:00.521Z,7.35
2022-12-05T21:32:36.086Z,7.63
2022-12-05T21:35:08.723Z,7.80
2022-12-05T21:37:40.523Z,7.68
2022-12-05T21:40:12.395Z,7.68
2022-12-05T21:42:44.125Z,7.70
2022-12-05T21:45:16.312Z,9.00
2022-12-05T21:47:51.112Z,8.55
2022-12-05T21:50:26.266Z,8.48
2022-12-05T21:52:58.287Z,9.13
2022-12-05T21:55:35.774Z,9.35
2022-12-05T21:58:07.916Z,9.02
2022-12-05T22:00:40.392Z,10.63
2022-12-05T22:03:15.468Z,11.77
2022-12-05T22:05:47.613Z,21.65
2022-12-05T22:08:19.739Z,20.52
2022-12-05T22:10:51.558Z,9.45
2022-12-05T22:13:23.503Z,10.05
2022-12-05T22:15:58.363Z,14.88
2022-12-05T22:18:37.433Z,14.23
2022-12-05T22:21:12.024Z,15.82
2022-12-05T22:23:44.299Z,15.27
2022-12-05T22:26:18.900Z,12.55
2022-12-05T22:28:51.846Z,9.43
2022-12-05T22:31:24.592Z,11.23
2022-12-05T22:33:57.911Z,19.30
2022-12-05T22:36:29.824Z,13.65
2022-12-05T22:39:02.730Z,11.68
2022-12-05T22:41:34.752Z,10.82
2022-12-05T22:44:06.622Z,9.45
2022-12-05T22:46:38.478Z,6.32
2022-12-05T22:49:11.877Z,6.45
2022-12-05T22:54:15.321Z,5.95
2022-12-05T22:56:47.119Z,6.13
2022-12-05T22:59:18.995Z,6.05
2022-12-05T23:01:50.828Z,6.47
2022-12-05T23:04:24.587Z,6.63
2022-12-05T23:06:56.761Z,6.22
2022-12-05T23:09:28.771Z,6.90
2022-12-05T23:12:00.787Z,6.43
2022-12-05T23:14:32.665Z,6.90
2022-12-05T23:17:04.995Z,6.95
2022-12-05T23:19:38.879Z,6.72
2022-12-05T23:22:10.766Z,7.03
2022-12-05T23:24:42.588Z,7.15
2022-12-05T23:27:18.550Z,6.65
2022-12-05T23:29:50.530Z,6.35
2022-12-05T23:32:22.380Z,6.38
2022-12-05T23:34:55.781Z,6.90
2022-12-05T23:39:59.580Z,5.90
2022-12-05T23:42:31.635Z,6.10
2022-12-05T23:45:03.919Z,6.13
2022-12-05T23:47:35.899Z,6.30
